createdAt,value
2024-05-09T00:00:18.684Z,27.73
2024-05-09T00:03:13.955Z,26.63
2024-05-09T00:06:01.707Z,27.85
2024-05-09T00:08:49.168Z,27.23
2024-05-09T00:11:36.460Z,27.95
2024-05-09T00:14:23.874Z,27.42
2024-05-09T00:17:11.185Z,26.73
2024-05-09T00:19:58.620Z,29.17
2024-05-09T00:22:45.936Z,27.05
2024-05-09T00:25:33.312Z,26.52
2024-05-09T00:28:20.544Z,27.40
2024-05-09T00:31:07.826Z,26.98
2024-05-09T00:33:55.234Z,24.20
2024-05-09T00:36:42.538Z,27.23
2024-05-09T00:39:29.853Z,27.35
2024-05-09T00:42:17.109Z,26.35
2024-05-09T00:45:06.772Z,27.58
2024-05-09T00:47:54.528Z,26.13
2024-05-09T00:50:45.021Z,27.33
2024-05-09T00:53:34.198Z,26.40
2024-05-09T00:56:22.484Z,25.90
2024-05-09T00:59:10.031Z,25.23
2024-05-09T01:02:00.541Z,26.50
2024-05-09T01:04:48.095Z,26.63
2024-05-09T01:07:35.593Z,25.90
2024-05-09T01:10:28.193Z,26.98
2024-05-09T01:13:21.401Z,25.98
2024-05-09T01:16:08.706Z,25.77
2024-05-09T01:18:56.952Z,25.73
2024-05-09T01:21:44.362Z,26.27
2024-05-09T01:24:31.670Z,28.20
2024-05-09T01:27:19.075Z,26.02
2024-05-09T01:30:09.593Z,25.25
2024-05-09T01:33:02.085Z,26.20
2024-05-09T01:35:49.486Z,25.70
2024-05-09T01:38:36.849Z,26.52
2024-05-09T01:41:24.479Z,27.08
2024-05-09T01:44:11.791Z,28.77
2024-05-09T01:46:59.184Z,26.90
2024-05-09T01:49:46.601Z,28.20
2024-05-09T01:52:38.521Z,28.42
2024-05-09T01:55:25.846Z,28.13
2024-05-09T01:58:13.360Z,30.63
2024-05-09T02:01:02.189Z,28.70
2024-05-09T02:03:49.932Z,30.05
2024-05-09T02:06:43.531Z,28.85
2024-05-09T02:09:30.811Z,27.95
2024-05-09T02:12:18.148Z,27.63
2024-05-09T02:15:06.390Z,31.45
2024-05-09T02:17:54.089Z,27.50
2024-05-09T02:20:42.905Z,25.92
2024-05-09T02:23:30.928Z,29.23
2024-05-09T02:26:18.351Z,28.42
2024-05-09T02:29:05.764Z,29.95
2024-05-09T02:31:53.208Z,28.17
2024-05-09T02:34:40.459Z,28.02
2024-05-09T02:37:27.760Z,29.38
2024-05-09T02:40:21.577Z,28.17
2024-05-09T02:43:13.310Z,30.45
2024-05-09T02:46:00.740Z,29.90
2024-05-09T02:48:48.320Z,31.92
2024-05-09T02:51:35.664Z,32.03
2024-05-09T02:54:23.001Z,30.85
2024-05-09T02:57:10.347Z,30.33
2024-05-09T02:59:57.634Z,27.77
2024-05-09T03:02:45.092Z,30.33
2024-05-09T03:05:32.637Z,32.95
2024-05-09T03:08:19.937Z,29.08
2024-05-09T03:11:07.260Z,30.25
2024-05-09T03:13:55.252Z,29.13
2024-05-09T03:16:42.541Z,27.23
2024-05-09T03:19:29.896Z,31.13
2024-05-09T03:22:17.362Z,29.92
2024-05-09T03:25:05.052Z,30.77
2024-05-09T03:27:53.549Z,30.85
2024-05-09T03:30:42.990Z,30.13
2024-05-09T03:33:30.868Z,31.83
2024-05-09T03:36:18.306Z,33.25
2024-05-09T03:39:05.588Z,34.97
2024-05-09T03:41:52.867Z,33.47
2024-05-09T03:44:40.383Z,31.58
2024-05-09T03:47:27.969Z,32.67
2024-05-09T03:50:22.150Z,32.17
2024-05-09T03:53:14.840Z,32.78
2024-05-09T03:56:03.802Z,32.17
2024-05-09T03:58:51.300Z,34.63
2024-05-09T04:01:38.699Z,31.30
2024-05-09T04:04:25.999Z,30.80
2024-05-09T04:07:13.265Z,31.90
2024-05-09T04:10:00.570Z,33.45
2024-05-09T04:12:47.805Z,35.17
2024-05-09T04:15:35.182Z,35.20
2024-05-09T04:18:22.577Z,29.67
2024-05-09T04:21:10.032Z,33.85
2024-05-09T04:23:57.346Z,32.10
2024-05-09T04:26:44.556Z,32.22
2024-05-09T04:29:32.292Z,29.48
2024-05-09T04:32:19.698Z,29.88
2024-05-09T04:35:07.178Z,33.15
2024-05-09T04:37:54.581Z,31.98
2024-05-09T04:40:42.056Z,32.03
2024-05-09T04:43:29.303Z,34.28
2024-05-09T04:46:16.647Z,34.53
2024-05-09T04:49:04.140Z,31.65
2024-05-09T04:51:51.496Z,35.03
2024-05-09T04:54:38.772Z,32.85
2024-05-09T04:57:26.024Z,33.53
2024-05-09T05:00:15.001Z,33.65
2024-05-09T05:03:14.292Z,34.47
2024-05-09T05:06:03.461Z,33.90
2024-05-09T05:08:51.302Z,34.53
2024-05-09T05:11:38.700Z,35.28
2024-05-09T05:14:26.022Z,34.53
2024-05-09T05:17:13.333Z,33.58
2024-05-09T05:20:00.757Z,31.73
2024-05-09T05:22:48.142Z,31.52
2024-05-09T05:25:35.414Z,37.35
2024-05-09T05:28:23.538Z,33.47
2024-05-09T05:31:11.080Z,36.22
2024-05-09T05:33:58.493Z,35.17
2024-05-09T05:36:45.849Z,32.63
2024-05-09T05:39:33.158Z,34.92
2024-05-09T05:42:20.517Z,32.42
2024-05-09T05:45:09.966Z,33.40
2024-05-09T05:47:57.573Z,33.78
2024-05-09T05:50:45.419Z,36.75
2024-05-09T05:53:32.879Z,33.58
2024-05-09T05:56:20.357Z,35.30
2024-05-09T05:59:08.367Z,36.05
2024-05-09T06:01:55.813Z,37.67
2024-05-09T06:04:43.410Z,35.28
2024-05-09T06:07:30.760Z,35.35
2024-05-09T06:10:25.143Z,35.70
2024-05-09T06:13:14.423Z,35.28
2024-05-09T06:16:02.489Z,34.55
2024-05-09T06:18:50.057Z,37.92
2024-05-09T06:21:37.392Z,31.70
2024-05-09T06:24:24.699Z,36.92
2024-05-09T06:27:11.958Z,35.92
2024-05-09T06:29:59.325Z,37.45
2024-05-09T06:32:46.796Z,32.03
2024-05-09T06:35:34.399Z,30.77
2024-05-09T06:38:21.920Z,34.45
2024-05-09T06:41:09.393Z,28.88
2024-05-09T06:43:56.870Z,32.58
2024-05-09T06:46:45.438Z,36.30
2024-05-09T06:49:33.112Z,32.88
2024-05-09T06:52:20.455Z,34.33
2024-05-09T06:55:07.788Z,29.98
2024-05-09T06:57:55.095Z,33.70
2024-05-09T07:00:42.636Z,28.95
2024-05-09T07:03:30.629Z,29.50
2024-05-09T07:06:17.984Z,34.63
2024-05-09T07:09:05.310Z,33.95
2024-05-09T07:11:52.618Z,33.25
2024-05-09T07:14:40.121Z,32.45
2024-05-09T07:17:27.673Z,32.38
2024-05-09T07:20:22.959Z,28.60
2024-05-09T07:23:16.131Z,28.02
2024-05-09T07:26:03.669Z,28.85
2024-05-09T07:28:51.000Z,27.35
2024-05-09T07:31:38.407Z,26.77
2024-05-09T07:34:25.880Z,29.27
2024-05-09T07:37:14.207Z,26.23
2024-05-09T07:40:01.693Z,25.58
2024-05-09T07:42:48.951Z,26.60
2024-05-09T07:50:00.225Z,23.58
2024-05-09T07:53:14.063Z,23.45
2024-05-09T07:54:45.305Z,23.17
2024-05-09T07:57:32.779Z,23.25
2024-05-09T08:00:26.833Z,20.92
2024-05-09T08:03:17.007Z,23.98
2024-05-09T08:06:04.745Z,24.00
2024-05-09T08:08:52.073Z,22.50
2024-05-09T08:11:39.377Z,24.67
2024-05-09T08:14:27.638Z,22.88
2024-05-09T08:17:15.065Z,22.88
2024-05-09T08:20:05.407Z,22.00
2024-05-09T08:22:52.802Z,21.42
2024-05-09T08:25:40.195Z,20.48
2024-05-09T08:28:27.528Z,21.55
2024-05-09T08:31:15.253Z,20.98
2024-05-09T08:34:03.290Z,19.15
2024-05-09T08:36:51.939Z,19.73
2024-05-09T08:39:39.318Z,21.60
2024-05-09T08:42:32.164Z,20.75
2024-05-09T08:45:19.584Z,17.98
2024-05-09T08:48:08.924Z,20.30
2024-05-09T08:50:59.494Z,20.73
2024-05-09T08:53:46.959Z,21.65
2024-05-09T08:56:35.617Z,19.88
2024-05-09T08:59:44.431Z,23.58
2024-05-09T09:02:33.125Z,21.58
2024-05-09T09:05:28.154Z,21.25
2024-05-09T09:08:16.504Z,20.38
2024-05-09T09:11:04.324Z,21.58
2024-05-09T09:13:51.637Z,21.05
2024-05-09T09:16:38.936Z,26.15
2024-05-09T09:19:26.344Z,23.38
2024-05-09T09:22:15.248Z,22.77
2024-05-09T09:25:02.637Z,25.15
2024-05-09T09:27:50.304Z,25.80
2024-05-09T09:30:42.448Z,22.80
2024-05-09T09:33:35.609Z,25.77
2024-05-09T09:36:23.195Z,25.23
2024-05-09T09:39:14.484Z,24.15
2024-05-09T09:42:04.602Z,24.70
2024-05-09T09:45:02.090Z,23.90
2024-05-09T09:47:57.257Z,25.30
2024-05-09T09:50:47.364Z,25.17
2024-05-09T09:53:38.521Z,27.20
2024-05-09T09:56:28.359Z,23.77
2024-05-09T09:59:16.759Z,22.90
2024-05-09T10:02:04.414Z,23.90
2024-05-09T10:04:52.300Z,24.65
2024-05-09T10:07:43.705Z,24.00
2024-05-09T10:10:35.653Z,27.95
2024-05-09T10:13:33.752Z,24.77
2024-05-09T10:16:23.251Z,24.38
2024-05-09T10:19:31.141Z,23.48
2024-05-09T10:22:28.691Z,22.63
2024-05-09T10:25:17.034Z,27.15
2024-05-09T10:28:05.074Z,23.35
2024-05-09T10:31:14.047Z,23.98
2024-05-09T10:34:02.698Z,21.52
2024-05-09T10:36:55.144Z,23.92
2024-05-09T10:39:42.998Z,22.77
2024-05-09T10:42:31.021Z,23.25
2024-05-09T10:45:18.536Z,24.92
2024-05-09T10:48:07.141Z,21.80
2024-05-09T10:50:54.953Z,21.65
2024-05-09T10:53:43.785Z,21.70
2024-05-09T10:56:31.347Z,23.08
2024-05-09T10:59:18.593Z,23.42
2024-05-09T11:02:10.812Z,22.27
2024-05-09T11:04:58.408Z,24.38
2024-05-09T11:07:45.895Z,20.45
2024-05-09T11:10:34.443Z,20.50
2024-05-09T11:13:32.279Z,23.88
2024-05-09T11:16:21.626Z,21.92
2024-05-09T11:19:14.169Z,23.20
2024-05-09T11:22:02.192Z,21.05
2024-05-09T11:24:49.778Z,19.85
2024-05-09T11:27:37.180Z,18.58
2024-05-09T11:30:30.065Z,16.67
2024-05-09T11:33:19.882Z,17.15
2024-05-09T11:36:09.351Z,18.75
2024-05-09T11:38:56.756Z,16.88
2024-05-09T11:41:44.030Z,17.20
2024-05-09T11:44:31.367Z,16.45
2024-05-09T11:47:18.842Z,15.05
2024-05-09T11:50:08.234Z,14.07
2024-05-09T11:52:57.587Z,16.67
2024-05-09T11:55:44.963Z,19.33
2024-05-09T11:58:34.740Z,19.05
2024-05-09T12:01:25.111Z,18.52
2024-05-09T12:04:13.754Z,17.77
2024-05-09T12:07:01.402Z,19.42
2024-05-09T12:09:48.742Z,18.42
2024-05-09T12:12:37.526Z,19.05
2024-05-09T12:15:24.951Z,17.80
2024-05-09T12:18:12.321Z,18.02
2024-05-09T12:21:03.105Z,18.30
2024-05-09T12:23:50.685Z,17.25
2024-05-09T12:26:38.082Z,18.67
2024-05-09T12:29:26.405Z,17.80
2024-05-09T12:32:13.795Z,17.05
2024-05-09T12:35:01.053Z,18.52
2024-05-09T12:37:48.444Z,18.15
2024-05-09T12:40:38.408Z,18.65
2024-05-09T12:43:26.792Z,18.85
2024-05-09T12:46:14.396Z,17.17
2024-05-09T12:49:01.906Z,19.33
2024-05-09T12:51:49.377Z,16.77
2024-05-09T12:54:37.402Z,16.98
2024-05-09T12:57:25.856Z,17.77
2024-05-09T13:00:23.262Z,20.08
2024-05-09T13:03:15.467Z,19.60
2024-05-09T13:06:02.970Z,18.08
2024-05-09T13:08:50.413Z,18.73
2024-05-09T13:11:38.107Z,19.08
2024-05-09T13:14:25.603Z,19.70
2024-05-09T13:17:13.024Z,18.30
2024-05-09T13:20:00.431Z,19.15
2024-05-09T13:22:48.704Z,14.52
2024-05-09T13:25:39.099Z,13.10
2024-05-09T13:31:15.212Z,18.77
2024-05-09T13:34:02.691Z,21.33
2024-05-09T13:36:50.376Z,24.27
2024-05-09T13:39:37.789Z,23.38
2024-05-09T13:42:25.157Z,25.08
2024-05-09T13:45:12.783Z,22.63
2024-05-09T13:48:00.928Z,23.50
2024-05-09T13:50:48.598Z,22.20
2024-05-09T13:53:35.955Z,23.67
2024-05-09T13:56:23.390Z,24.60
2024-05-09T13:59:10.996Z,23.48
2024-05-09T14:01:58.699Z,20.67
2024-05-09T14:04:46.167Z,24.17
2024-05-09T14:07:33.625Z,22.40
2024-05-09T14:10:26.210Z,25.27
2024-05-09T14:13:18.631Z,22.83
2024-05-09T14:16:06.857Z,27.05
2024-05-09T14:18:54.287Z,24.13
2024-05-09T14:21:41.644Z,24.73
2024-05-09T14:24:28.948Z,26.45
2024-05-09T14:27:16.421Z,25.98
2024-05-09T14:30:07.327Z,22.90
2024-05-09T14:32:56.904Z,25.27
2024-05-09T14:35:44.447Z,24.95
2024-05-09T14:38:31.943Z,23.20
2024-05-09T14:41:19.699Z,26.10
2024-05-09T14:44:07.554Z,23.00
2024-05-09T14:46:54.959Z,24.23
2024-05-09T14:49:42.588Z,25.25
2024-05-09T14:52:29.920Z,24.70
2024-05-09T14:55:17.314Z,21.70
2024-05-09T14:58:07.376Z,25.27
2024-05-09T15:00:55.109Z,23.10
2024-05-09T15:03:42.700Z,24.98
2024-05-09T15:06:30.329Z,23.10
2024-05-09T15:09:17.839Z,22.38
2024-05-09T15:12:05.537Z,24.60
2024-05-09T15:14:52.880Z,23.75
2024-05-09T15:17:40.837Z,22.75
2024-05-09T15:20:34.563Z,24.98
2024-05-09T15:23:24.153Z,22.52
2024-05-09T15:26:11.855Z,23.10
2024-05-09T15:28:59.362Z,24.65
2024-05-09T15:31:46.635Z,22.58
2024-05-09T15:34:34.067Z,24.50
2024-05-09T15:37:22.549Z,24.48
2024-05-09T15:40:15.338Z,21.65
2024-05-09T15:43:11.255Z,25.20
2024-05-09T15:45:59.398Z,22.23
2024-05-09T15:48:47.184Z,23.60
2024-05-09T15:51:34.981Z,21.55
2024-05-09T15:54:23.688Z,23.10
2024-05-09T15:57:12.900Z,24.60
2024-05-09T16:00:00.379Z,23.10
2024-05-09T16:02:47.891Z,23.15
2024-05-09T16:05:35.563Z,24.83
2024-05-09T16:08:23.495Z,26.05
2024-05-09T16:11:10.921Z,27.40
2024-05-09T16:13:58.323Z,21.10
2024-05-09T16:16:46.143Z,22.95
2024-05-09T16:19:33.733Z,22.98
2024-05-09T16:22:21.043Z,23.70
2024-05-09T16:25:08.387Z,23.90
2024-05-09T16:27:55.802Z,22.33
2024-05-09T16:30:43.301Z,22.15
2024-05-09T16:33:31.223Z,21.92
2024-05-09T16:36:18.764Z,24.30
2024-05-09T16:39:06.064Z,21.60
2024-05-09T16:41:53.340Z,23.80
2024-05-09T16:44:40.646Z,22.13
2024-05-09T16:47:28.331Z,22.17
2024-05-09T16:50:19.266Z,22.38
2024-05-09T16:53:09.626Z,23.33
2024-05-09T16:55:56.976Z,21.38
2024-05-09T16:58:44.290Z,20.50
2024-05-09T17:01:31.742Z,20.73
2024-05-09T17:04:19.442Z,22.80
2024-05-09T17:07:06.969Z,24.67
2024-05-09T17:09:54.611Z,22.92
2024-05-09T17:12:43.470Z,19.77
2024-05-09T17:15:31.096Z,22.00
2024-05-09T17:18:18.728Z,22.88
2024-05-09T17:21:06.313Z,23.55
2024-05-09T17:23:55.660Z,22.48
2024-05-09T17:26:42.979Z,23.30
2024-05-09T17:29:30.694Z,22.77
2024-05-09T17:32:18.095Z,21.70
2024-05-09T17:35:06.173Z,20.80
2024-05-09T17:37:53.709Z,22.15
2024-05-09T17:40:41.218Z,22.42
2024-05-09T17:43:28.900Z,22.55
2024-05-09T17:46:16.460Z,21.10
2024-05-09T17:49:04.402Z,22.95
2024-05-09T17:51:55.554Z,23.60
2024-05-09T17:54:42.872Z,23.10
2024-05-09T17:57:30.305Z,23.88
2024-05-09T18:00:28.542Z,22.40
2024-05-09T18:03:24.134Z,22.27
2024-05-09T18:06:11.481Z,24.52
2024-05-09T18:08:58.681Z,23.00
2024-05-09T18:11:46.266Z,23.77
2024-05-09T18:14:33.616Z,21.25
2024-05-09T18:17:23.635Z,21.42
2024-05-09T18:20:19.694Z,21.20
2024-05-09T18:23:18.003Z,21.50
2024-05-09T18:26:06.221Z,21.10
2024-05-09T18:28:53.573Z,20.35
2024-05-09T18:31:40.861Z,23.02
2024-05-09T18:34:28.282Z,23.77
2024-05-09T18:37:15.740Z,21.27
2024-05-09T18:40:03.403Z,24.25
2024-05-09T18:42:51.793Z,21.98
2024-05-09T18:45:39.783Z,25.23
2024-05-09T18:48:27.351Z,22.15
2024-05-09T18:51:14.807Z,22.60
2024-05-09T18:54:02.152Z,18.52
2024-05-09T18:56:49.503Z,21.65
2024-05-09T18:59:36.930Z,23.15
2024-05-09T19:02:24.388Z,22.85
2024-05-09T19:05:11.987Z,20.88
2024-05-09T19:07:59.662Z,22.15
2024-05-09T19:10:47.170Z,21.02
2024-05-09T19:13:34.605Z,22.77
2024-05-09T19:16:22.199Z,22.85
2024-05-09T19:19:10.082Z,21.77
2024-05-09T19:21:58.203Z,22.77
2024-05-09T19:24:45.576Z,23.85
2024-05-09T19:27:32.954Z,20.83
2024-05-09T19:30:29.783Z,21.77
2024-05-09T19:33:26.127Z,23.33
2024-05-09T19:36:13.634Z,21.20
2024-05-09T19:39:00.993Z,22.70
2024-05-09T19:41:48.403Z,22.02
2024-05-09T19:44:35.704Z,22.65
2024-05-09T19:47:23.248Z,25.85
2024-05-09T19:50:13.896Z,22.45
2024-05-09T19:53:04.028Z,21.38
2024-05-09T19:55:51.419Z,21.10
2024-05-09T19:58:38.745Z,23.33
2024-05-09T20:01:26.156Z,23.25
2024-05-09T20:04:13.838Z,21.67
2024-05-09T20:07:01.254Z,26.15
2024-05-09T20:09:48.589Z,24.10
2024-05-09T20:12:36.059Z,24.13
2024-05-09T20:15:23.382Z,27.42
2024-05-09T20:18:11.440Z,25.27
2024-05-09T20:21:00.103Z,26.30
2024-05-09T20:23:47.544Z,26.92
2024-05-09T20:26:34.807Z,24.80
2024-05-09T20:29:22.461Z,25.58
2024-05-09T20:32:09.767Z,26.42
2024-05-09T20:34:57.000Z,28.85
2024-05-09T20:37:44.227Z,25.48
2024-05-09T20:40:36.924Z,26.67
2024-05-09T20:43:26.586Z,26.58
2024-05-09T20:46:17.274Z,27.52
2024-05-09T20:49:04.800Z,26.08
2024-05-09T20:51:52.214Z,27.15
2024-05-09T20:54:39.528Z,25.08
2024-05-09T20:57:26.838Z,26.13
2024-05-09T21:00:18.847Z,28.23
2024-05-09T21:03:10.505Z,25.27
2024-05-09T21:05:58.721Z,29.70
2024-05-09T21:08:45.989Z,28.05
2024-05-09T21:11:33.297Z,27.77
2024-05-09T21:14:20.613Z,29.23
2024-05-09T21:17:08.056Z,30.02
2024-05-09T21:19:55.362Z,31.83
2024-05-09T21:22:44.255Z,29.80
2024-05-09T21:25:32.283Z,28.20
2024-05-09T21:28:19.881Z,29.48
2024-05-09T21:31:08.876Z,28.35
2024-05-09T21:33:56.283Z,29.60
2024-05-09T21:36:43.748Z,30.75
2024-05-09T21:39:31.188Z,26.65
2024-05-09T21:42:18.434Z,27.75
2024-05-09T21:45:06.443Z,27.38
2024-05-09T21:47:53.817Z,26.95
2024-05-09T21:50:42.583Z,27.88
2024-05-09T21:53:30.163Z,28.73
2024-05-09T21:56:17.394Z,28.60
2024-05-09T21:59:04.791Z,29.27
2024-05-09T22:01:52.093Z,27.80
2024-05-09T22:04:40.080Z,30.23
2024-05-09T22:07:27.450Z,31.27
2024-05-09T22:10:22.775Z,33.28
2024-05-09T22:13:16.157Z,31.17
2024-05-09T22:16:04.572Z,31.08
2024-05-09T22:18:52.220Z,29.30
2024-05-09T22:21:39.589Z,31.77
2024-05-09T22:24:26.906Z,34.65
2024-05-09T22:27:14.170Z,31.75
2024-05-09T22:30:01.456Z,34.10
2024-05-09T22:32:48.840Z,31.60
2024-05-09T22:35:36.143Z,32.70
2024-05-09T22:38:23.338Z,36.58
2024-05-09T22:41:10.662Z,32.90
2024-05-09T22:43:58.630Z,30.73
2024-05-09T22:46:45.957Z,34.63
2024-05-09T22:49:33.370Z,31.88
2024-05-09T22:52:20.696Z,31.30
2024-05-09T22:55:08.474Z,31.95
2024-05-09T22:57:56.331Z,32.45
2024-05-09T23:00:43.857Z,31.75
2024-05-09T23:03:33.072Z,33.28
2024-05-09T23:06:20.506Z,33.45
2024-05-09T23:09:09.779Z,33.72
2024-05-09T23:11:57.266Z,33.28
2024-05-09T23:14:45.324Z,32.50
2024-05-09T23:17:32.742Z,33.90
2024-05-09T23:20:29.909Z,30.75
2024-05-09T23:23:24.031Z,32.13
2024-05-09T23:26:11.396Z,33.00
2024-05-09T23:28:59.238Z,33.15
2024-05-09T23:31:46.667Z,34.47
2024-05-09T23:34:33.944Z,33.63
2024-05-09T23:37:21.356Z,34.83
2024-05-09T23:40:15.111Z,34.95
2024-05-09T23:43:05.902Z,34.65
2024-05-09T23:45:53.230Z,35.67
2024-05-09T23:48:40.618Z,34.45
2024-05-09T23:51:27.935Z,32.67
2024-05-09T23:54:15.200Z,32.17
2024-05-09T23:57:02.524Z,35.75
2024-05-09T23:59:49.861Z,34.65
